createdAt,value
2023-01-22T00:00:24.937Z,49.00
2023-01-22T00:02:52.792Z,49.78
2023-01-22T00:05:20.824Z,48.48
2023-01-22T00:07:49.212Z,49.00
2023-01-22T00:10:17.537Z,48.44
2023-01-22T00:12:45.549Z,48.56
2023-01-22T00:15:13.427Z,49.12
2023-01-22T00:17:41.203Z,49.25
2023-01-22T00:20:09.948Z,48.23
2023-01-22T00:22:37.697Z,49.21
2023-01-22T00:25:06.109Z,48.82
2023-01-22T00:27:34.012Z,48.87
2023-01-22T00:30:01.854Z,49.13
2023-01-22T00:32:29.790Z,48.48
2023-01-22T00:34:57.675Z,49.65
2023-01-22T00:37:26.209Z,48.59
2023-01-22T00:39:54.046Z,49.41
2023-01-22T00:42:22.389Z,48.75
2023-01-22T00:44:50.256Z,49.73
2023-01-22T00:47:18.128Z,48.71
2023-01-22T00:49:46.018Z,49.18
2023-01-22T00:52:13.923Z,48.75
2023-01-22T00:54:42.139Z,48.99
2023-01-22T00:57:09.881Z,49.51
2023-01-22T00:59:37.908Z,49.66
2023-01-22T01:02:07.082Z,48.92
2023-01-22T01:04:35.047Z,49.50
2023-01-22T01:07:02.944Z,49.48
2023-01-22T01:09:30.740Z,48.69
2023-01-22T01:11:59.345Z,48.62
2023-01-22T01:14:27.974Z,49.34
2023-01-22T01:16:59.023Z,48.87
2023-01-22T01:19:27.045Z,48.36
2023-01-22T01:21:54.933Z,48.22
2023-01-22T01:24:24.989Z,47.36
2023-01-22T01:26:52.760Z,48.17
2023-01-22T01:29:20.587Z,47.25
2023-01-22T01:31:52.122Z,46.85
2023-01-22T01:34:20.122Z,47.38
2023-01-22T01:36:49.546Z,47.45
2023-01-22T01:39:17.947Z,47.11
2023-01-22T01:41:47.795Z,48.02
2023-01-22T01:44:23.376Z,47.42
2023-01-22T01:47:05.589Z,47.44
2023-01-22T01:49:49.650Z,47.63
2023-01-22T01:52:18.194Z,47.29
2023-01-22T01:54:48.305Z,47.75
2023-01-22T01:57:19.346Z,48.09
2023-01-22T01:59:47.271Z,47.13
2023-01-22T02:02:15.137Z,47.40
2023-01-22T02:04:44.051Z,48.05
2023-01-22T02:07:11.861Z,48.14
2023-01-22T02:09:39.912Z,47.77
2023-01-22T02:12:07.920Z,47.46
2023-01-22T02:14:38.269Z,47.55
2023-01-22T02:17:14.099Z,48.22
2023-01-22T02:19:42.479Z,47.57
2023-01-22T02:22:14.750Z,47.75
2023-01-22T02:24:42.559Z,48.04
2023-01-22T02:27:11.240Z,48.00
2023-01-22T02:29:39.161Z,47.97
2023-01-22T02:32:09.614Z,47.85
2023-01-22T02:34:38.713Z,47.81
2023-01-22T02:37:06.791Z,47.88
2023-01-22T02:39:34.747Z,47.67
2023-01-22T02:42:05.478Z,47.79
2023-01-22T02:44:33.529Z,48.61
2023-01-22T02:47:01.561Z,47.73
2023-01-22T02:49:29.387Z,48.13
2023-01-22T02:51:57.236Z,48.50
2023-01-22T02:54:25.864Z,48.74
2023-01-22T02:56:53.770Z,48.81
2023-01-22T02:59:21.632Z,48.10
2023-01-22T03:01:49.493Z,48.22
2023-01-22T03:04:17.432Z,47.34
2023-01-22T03:06:46.380Z,47.73
2023-01-22T03:09:16.495Z,48.89
2023-01-22T03:11:45.743Z,48.16
2023-01-22T03:14:36.530Z,48.13
2023-01-22T03:17:23.028Z,48.52
2023-01-22T03:20:11.178Z,48.54
2023-01-22T03:22:39.000Z,48.98
2023-01-22T03:25:07.198Z,48.37
2023-01-22T03:27:35.115Z,48.46
2023-01-22T03:30:02.953Z,47.98
2023-01-22T03:32:34.703Z,49.49
2023-01-22T03:35:02.824Z,49.11
2023-01-22T03:37:43.897Z,47.87
2023-01-22T03:40:12.238Z,47.95
2023-01-22T03:42:40.736Z,47.90
2023-01-22T03:45:10.428Z,47.86
2023-01-22T03:47:39.231Z,47.35
2023-01-22T03:50:22.049Z,47.37
2023-01-22T03:52:49.816Z,46.46
2023-01-22T03:55:17.610Z,45.07
2023-01-22T03:57:45.704Z,45.17
2023-01-22T04:00:15.242Z,44.55
2023-01-22T04:02:43.927Z,43.92
2023-01-22T04:05:19.960Z,43.45
2023-01-22T04:07:50.054Z,43.58
2023-01-22T04:10:20.412Z,42.86
2023-01-22T04:12:49.038Z,42.83
2023-01-22T04:15:20.463Z,43.46
2023-01-22T04:17:49.924Z,43.71
2023-01-22T04:20:46.996Z,43.58
2023-01-22T04:23:30.402Z,43.54
2023-01-22T04:25:59.048Z,43.00
2023-01-22T04:28:27.051Z,43.88
2023-01-22T04:30:56.414Z,45.01
2023-01-22T04:33:43.233Z,44.16
2023-01-22T04:36:16.591Z,44.23
2023-01-22T04:38:44.787Z,44.12
2023-01-22T04:41:12.406Z,45.34
2023-01-22T04:43:40.383Z,44.89
2023-01-22T04:46:08.389Z,45.55
2023-01-22T04:48:36.262Z,45.64
2023-01-22T04:51:04.450Z,45.46
2023-01-22T04:53:33.644Z,45.80
2023-01-22T04:56:01.701Z,46.20
2023-01-22T04:58:29.532Z,46.83
2023-01-22T05:01:00.678Z,46.91
2023-01-22T05:03:29.379Z,46.00
2023-01-22T05:05:57.892Z,46.48
2023-01-22T05:08:27.290Z,46.40
2023-01-22T05:10:55.302Z,46.14
2023-01-22T05:13:30.142Z,45.64
2023-01-22T05:15:58.137Z,44.79
2023-01-22T05:18:27.120Z,45.04
2023-01-22T05:20:54.896Z,45.33
2023-01-22T05:23:28.926Z,44.79
2023-01-22T05:26:02.654Z,43.34
2023-01-22T05:28:40.114Z,42.83
2023-01-22T05:31:12.025Z,42.64
2023-01-22T05:33:48.622Z,42.92
2023-01-22T05:36:17.178Z,42.68
2023-01-22T05:38:46.999Z,42.93
2023-01-22T05:41:16.387Z,42.19
2023-01-22T05:43:44.311Z,41.65
2023-01-22T05:46:18.622Z,42.08
2023-01-22T05:49:25.003Z,40.85
2023-01-22T05:51:56.578Z,41.43
2023-01-22T05:54:24.535Z,40.70
2023-01-22T05:56:53.111Z,41.41
2023-01-22T05:59:21.150Z,41.98
2023-01-22T06:01:55.516Z,42.53
2023-01-22T06:04:23.441Z,42.16
2023-01-22T06:06:51.185Z,41.62
2023-01-22T06:09:20.942Z,42.60
2023-01-22T06:11:48.796Z,42.25
2023-01-22T06:14:17.265Z,43.06
2023-01-22T06:16:45.479Z,43.04
2023-01-22T06:19:39.350Z,43.72
2023-01-22T06:22:08.122Z,43.80
2023-01-22T06:24:49.998Z,44.00
2023-01-22T06:27:19.448Z,45.05
2023-01-22T06:30:00.875Z,44.81
2023-01-22T06:32:29.332Z,45.22
2023-01-22T06:34:57.587Z,45.25
2023-01-22T06:37:25.659Z,44.01
2023-01-22T06:39:54.028Z,43.87
2023-01-22T06:42:42.119Z,43.36
2023-01-22T06:45:10.284Z,44.40
2023-01-22T06:47:44.587Z,43.56
2023-01-22T06:50:13.626Z,43.68
2023-01-22T06:52:41.961Z,42.92
2023-01-22T06:55:10.213Z,42.92
2023-01-22T06:57:39.711Z,43.32
2023-01-22T07:00:08.130Z,42.71
2023-01-22T07:02:35.960Z,42.41
2023-01-22T07:05:03.850Z,42.76
2023-01-22T07:07:31.672Z,42.59
2023-01-22T07:09:59.427Z,42.60
2023-01-22T07:12:27.407Z,42.00
2023-01-22T07:14:55.211Z,41.82
2023-01-22T07:17:23.237Z,42.34
2023-01-22T07:19:51.327Z,41.63
2023-01-22T07:22:19.131Z,42.34
2023-01-22T07:24:46.981Z,42.42
2023-01-22T07:27:14.867Z,41.77
2023-01-22T07:29:43.092Z,42.17
2023-01-22T07:32:10.887Z,41.44
2023-01-22T07:34:38.973Z,41.90
2023-01-22T07:37:06.933Z,41.79
2023-01-22T07:39:34.643Z,42.34
2023-01-22T07:42:02.542Z,41.91
2023-01-22T07:44:31.659Z,42.71
2023-01-22T07:46:59.483Z,42.46
2023-01-22T07:49:27.393Z,41.81
2023-01-22T07:51:55.230Z,41.88
2023-01-22T07:54:23.175Z,42.66
2023-01-22T07:56:51.096Z,43.48
2023-01-22T07:59:19.152Z,44.22
2023-01-22T08:01:47.256Z,43.70
2023-01-22T08:04:15.085Z,44.48
2023-01-22T08:06:42.840Z,43.60
2023-01-22T08:09:10.824Z,44.10
2023-01-22T08:11:38.791Z,43.85
2023-01-22T08:14:06.521Z,43.46
2023-01-22T08:16:34.527Z,43.21
2023-01-22T08:19:02.512Z,43.74
2023-01-22T08:21:30.439Z,44.61
2023-01-22T08:23:58.237Z,44.44
2023-01-22T08:26:26.088Z,44.49
2023-01-22T08:28:54.031Z,43.97
2023-01-22T08:31:27.846Z,43.67
2023-01-22T08:33:56.416Z,44.39
2023-01-22T08:36:24.348Z,43.81
2023-01-22T08:38:52.220Z,43.67
2023-01-22T08:41:20.206Z,44.38
2023-01-22T08:43:48.047Z,44.71
2023-01-22T08:46:16.100Z,44.02
2023-01-22T08:48:44.633Z,45.03
2023-01-22T08:51:13.008Z,44.91
2023-01-22T08:53:41.078Z,45.08
2023-01-22T08:56:08.931Z,45.26
2023-01-22T08:58:36.902Z,45.42
2023-01-22T09:01:04.898Z,45.60
2023-01-22T09:03:32.830Z,45.86
2023-01-22T09:06:00.618Z,45.68
2023-01-22T09:08:28.586Z,45.64
2023-01-22T09:10:56.373Z,44.80
2023-01-22T09:13:24.094Z,45.30
2023-01-22T09:15:52.135Z,44.89
2023-01-22T09:18:19.838Z,45.40
2023-01-22T09:20:47.655Z,45.51
2023-01-22T09:23:15.734Z,45.18
2023-01-22T09:25:43.627Z,45.97
2023-01-22T09:28:12.760Z,45.98
2023-01-22T09:30:42.238Z,46.42
2023-01-22T09:33:10.451Z,46.06
2023-01-22T09:35:38.355Z,46.58
2023-01-22T09:38:06.241Z,46.34
2023-01-22T09:40:49.374Z,46.54
2023-01-22T09:43:37.899Z,45.55
2023-01-22T09:46:13.436Z,46.96
2023-01-22T09:48:44.276Z,47.09
2023-01-22T09:51:15.612Z,47.08
2023-01-22T09:53:43.900Z,47.08
2023-01-22T09:56:24.133Z,47.30
2023-01-22T09:58:52.275Z,47.00
2023-01-22T10:01:20.642Z,47.57
2023-01-22T10:03:51.269Z,47.38
2023-01-22T10:06:23.355Z,47.55
2023-01-22T10:09:16.595Z,48.03
2023-01-22T10:11:53.032Z,49.14
2023-01-22T10:14:22.077Z,48.07
2023-01-22T10:16:49.937Z,48.21
2023-01-22T10:19:42.768Z,47.46
2023-01-22T10:22:36.722Z,46.96
2023-01-22T10:25:04.928Z,48.20
2023-01-22T10:27:41.873Z,48.07
2023-01-22T10:30:19.463Z,47.81
2023-01-22T10:32:58.368Z,48.57
2023-01-22T10:35:26.504Z,48.97
2023-01-22T10:37:55.525Z,48.26
2023-01-22T10:40:33.192Z,49.86
2023-01-22T10:43:01.859Z,48.79
2023-01-22T10:45:29.786Z,49.41
2023-01-22T10:48:17.664Z,49.00
2023-01-22T10:50:45.922Z,49.65
2023-01-22T10:53:34.858Z,49.31
2023-01-22T10:56:05.748Z,49.15
2023-01-22T10:58:37.077Z,50.10
2023-01-22T11:01:07.590Z,50.02
2023-01-22T11:03:37.621Z,50.06
2023-01-22T11:06:17.099Z,49.83
2023-01-22T11:09:00.839Z,48.95
2023-01-22T11:11:33.631Z,49.95
2023-01-22T11:14:07.872Z,49.51
2023-01-22T11:16:36.766Z,49.38
2023-01-22T11:19:13.098Z,49.47
2023-01-22T11:21:51.995Z,49.26
2023-01-22T11:24:22.717Z,49.12
2023-01-22T11:27:04.996Z,50.51
2023-01-22T11:29:59.251Z,49.95
2023-01-22T11:32:51.558Z,49.57
2023-01-22T11:35:45.211Z,50.05
2023-01-22T11:38:37.590Z,50.23
2023-01-22T11:41:31.042Z,49.45
2023-01-22T11:44:29.101Z,49.75
2023-01-22T11:47:12.037Z,49.94
2023-01-22T11:49:57.286Z,49.71
2023-01-22T11:52:44.105Z,49.63
2023-01-22T11:55:58.088Z,50.59
2023-01-22T11:58:58.338Z,49.57
2023-01-22T12:01:53.347Z,49.99
2023-01-22T12:04:43.051Z,50.06
2023-01-22T12:07:29.491Z,50.34
2023-01-22T12:10:19.346Z,49.93
2023-01-22T12:12:56.151Z,50.06
2023-01-22T12:15:27.444Z,49.84
2023-01-22T12:18:32.275Z,49.96
2023-01-22T12:21:03.058Z,49.92
2023-01-22T12:23:44.857Z,49.77
2023-01-22T12:26:23.703Z,49.34
2023-01-22T12:29:03.582Z,49.54
2023-01-22T12:31:35.578Z,49.27
2023-01-22T12:34:05.523Z,49.50
2023-01-22T12:36:33.479Z,49.50
2023-01-22T12:39:03.694Z,50.14
2023-01-22T12:41:49.038Z,48.69
2023-01-22T12:44:36.096Z,49.10
2023-01-22T12:47:22.457Z,49.87
2023-01-22T12:49:51.744Z,49.20
2023-01-22T12:52:33.492Z,50.16
2023-01-22T12:55:01.823Z,49.35
2023-01-22T12:57:40.709Z,48.91
2023-01-22T13:00:22.974Z,49.12
2023-01-22T13:02:52.234Z,48.64
2023-01-22T13:05:37.827Z,49.50
2023-01-22T13:08:42.673Z,50.02
2023-01-22T13:11:15.473Z,49.86
2023-01-22T13:13:53.079Z,49.47
2023-01-22T13:16:34.719Z,49.90
2023-01-22T13:19:19.540Z,49.96
2023-01-22T13:21:47.544Z,49.50
2023-01-22T13:24:17.512Z,49.34
2023-01-22T13:26:57.566Z,50.33
2023-01-22T13:29:29.096Z,48.83
2023-01-22T13:32:02.438Z,49.68
2023-01-22T13:34:30.653Z,49.75
2023-01-22T13:36:58.554Z,48.83
2023-01-22T13:39:35.534Z,49.34
2023-01-22T13:42:05.441Z,48.58
2023-01-22T13:44:38.341Z,48.54
2023-01-22T13:47:06.202Z,48.82
2023-01-22T13:49:42.762Z,48.49
2023-01-22T13:52:15.386Z,48.84
2023-01-22T13:54:55.853Z,48.82
2023-01-22T13:57:23.837Z,48.38
2023-01-22T13:59:55.259Z,48.20
2023-01-22T14:02:35.077Z,47.53
2023-01-22T14:05:02.991Z,48.15
2023-01-22T14:07:35.347Z,47.46
2023-01-22T14:10:18.562Z,48.44
2023-01-22T14:12:46.730Z,47.65
2023-01-22T14:15:16.743Z,48.48
2023-01-22T14:17:44.871Z,47.88
2023-01-22T14:20:12.840Z,48.01
2023-01-22T14:22:40.749Z,47.73
2023-01-22T14:25:09.174Z,48.02
2023-01-22T14:27:44.802Z,47.29
2023-01-22T14:30:15.047Z,47.22
2023-01-22T14:32:43.455Z,47.65
2023-01-22T14:35:18.835Z,47.75
2023-01-22T14:37:46.842Z,47.17
2023-01-22T14:40:15.800Z,47.34
2023-01-22T14:42:43.879Z,47.11
2023-01-22T14:45:11.924Z,46.37
2023-01-22T14:47:39.945Z,47.26
2023-01-22T14:50:08.344Z,48.00
2023-01-22T14:52:38.087Z,47.83
2023-01-22T14:55:06.389Z,47.42
2023-01-22T14:57:34.219Z,47.50
2023-01-22T15:00:02.971Z,47.68
2023-01-22T15:02:30.828Z,47.61
2023-01-22T15:04:59.009Z,48.64
2023-01-22T15:07:27.082Z,48.47
2023-01-22T15:09:54.857Z,48.02
2023-01-22T15:12:23.760Z,48.89
2023-01-22T15:14:51.852Z,48.70
2023-01-22T15:17:19.795Z,48.96
2023-01-22T15:19:47.921Z,48.12
2023-01-22T15:22:16.163Z,49.03
2023-01-22T15:24:44.327Z,49.12
2023-01-22T15:27:12.468Z,48.99
2023-01-22T15:29:40.374Z,49.50
2023-01-22T15:32:08.178Z,47.74
2023-01-22T15:34:36.153Z,48.85
2023-01-22T15:37:05.113Z,48.91
2023-01-22T15:39:33.140Z,48.26
2023-01-22T15:42:00.947Z,48.20
2023-01-22T15:44:29.478Z,48.74
2023-01-22T15:47:01.581Z,48.27
2023-01-22T15:49:29.450Z,48.42
2023-01-22T15:51:57.383Z,48.71
2023-01-22T15:54:25.897Z,49.31
2023-01-22T15:56:54.130Z,50.07
2023-01-22T15:59:22.016Z,49.62
2023-01-22T16:01:50.178Z,49.71
2023-01-22T16:04:18.211Z,49.16
2023-01-22T16:06:46.082Z,49.81
2023-01-22T16:09:13.986Z,48.84
2023-01-22T16:11:41.660Z,49.24
2023-01-22T16:14:09.662Z,48.24
2023-01-22T16:16:37.939Z,48.28
2023-01-22T16:19:07.589Z,48.12
2023-01-22T16:21:35.767Z,48.07
2023-01-22T16:24:03.900Z,48.18
2023-01-22T16:26:33.623Z,47.86
2023-01-22T16:29:02.208Z,47.80
2023-01-22T16:31:32.115Z,47.63
2023-01-22T16:34:01.902Z,48.32
2023-01-22T16:36:30.182Z,47.08
2023-01-22T16:38:58.119Z,47.18
2023-01-22T16:41:30.817Z,47.41
2023-01-22T16:43:59.734Z,48.05
2023-01-22T16:46:29.781Z,47.03
2023-01-22T16:49:02.086Z,46.91
2023-01-22T16:51:35.126Z,46.96
2023-01-22T16:54:03.024Z,47.37
2023-01-22T16:56:30.967Z,46.87
2023-01-22T16:58:59.097Z,47.19
2023-01-22T17:01:27.667Z,47.03
2023-01-22T17:03:55.480Z,47.45
2023-01-22T17:06:25.912Z,46.66
2023-01-22T17:08:53.847Z,46.46
2023-01-22T17:11:21.724Z,46.54
2023-01-22T17:13:49.788Z,46.10
2023-01-22T17:16:17.583Z,45.89
2023-01-22T17:18:45.803Z,45.26
2023-01-22T17:21:15.645Z,45.26
2023-01-22T17:23:43.652Z,44.89
2023-01-22T17:26:12.679Z,45.97
2023-01-22T17:28:40.528Z,45.67
2023-01-22T17:31:09.942Z,46.01
2023-01-22T17:33:38.045Z,46.40
2023-01-22T17:36:06.599Z,45.52
2023-01-22T17:38:38.391Z,46.19
2023-01-22T17:41:10.736Z,46.30
2023-01-22T17:43:39.347Z,45.85
2023-01-22T17:46:09.474Z,45.38
2023-01-22T17:48:37.833Z,46.28
2023-01-22T17:51:09.787Z,45.65
2023-01-22T17:53:39.149Z,46.10
2023-01-22T17:56:15.468Z,45.81
2023-01-22T17:58:44.743Z,46.06
2023-01-22T18:01:13.636Z,45.28
2023-01-22T18:03:41.628Z,45.58
2023-01-22T18:06:09.716Z,45.00
2023-01-22T18:08:39.759Z,44.40
2023-01-22T18:11:11.831Z,44.60
2023-01-22T18:13:39.886Z,44.72
2023-01-22T18:16:08.868Z,44.70
2023-01-22T18:18:36.785Z,44.74
2023-01-22T18:21:06.484Z,44.30
2023-01-22T18:23:34.236Z,44.74
2023-01-22T18:26:05.032Z,44.24
2023-01-22T18:28:32.980Z,44.32
2023-01-22T18:31:11.911Z,44.92
2023-01-22T18:33:40.120Z,45.26
2023-01-22T18:36:12.634Z,45.26
2023-01-22T18:38:41.082Z,45.13
2023-01-22T18:41:10.943Z,45.95
2023-01-22T18:43:38.947Z,45.60
2023-01-22T18:46:08.328Z,45.40
2023-01-22T18:48:36.310Z,44.29
2023-01-22T18:51:04.725Z,44.75
2023-01-22T18:53:33.766Z,43.85
2023-01-22T18:56:02.297Z,43.55
2023-01-22T18:58:36.400Z,43.00
2023-01-22T19:01:50.421Z,43.05
2023-01-22T19:04:21.226Z,43.63
2023-01-22T19:06:53.541Z,44.06
2023-01-22T19:09:21.580Z,43.91
2023-01-22T19:11:49.642Z,44.58
2023-01-22T19:14:19.153Z,44.93
2023-01-22T19:16:48.959Z,45.25
2023-01-22T19:19:17.400Z,44.49
2023-01-22T19:21:48.407Z,44.28
2023-01-22T19:24:18.932Z,44.21
2023-01-22T19:26:47.122Z,43.30
2023-01-22T19:29:20.187Z,43.51
2023-01-22T19:31:48.904Z,43.57
2023-01-22T19:34:23.804Z,43.74
2023-01-22T19:36:55.672Z,43.28
2023-01-22T19:39:25.706Z,43.46
2023-01-22T19:41:54.491Z,44.08
2023-01-22T19:44:22.488Z,43.52
2023-01-22T19:46:50.212Z,44.21
2023-01-22T19:49:18.010Z,43.28
2023-01-22T19:51:45.812Z,43.20
2023-01-22T19:54:13.702Z,42.96
2023-01-22T19:56:44.703Z,43.50
2023-01-22T19:59:15.228Z,44.12
2023-01-22T20:01:43.280Z,44.39
2023-01-22T20:04:14.983Z,44.18
2023-01-22T20:06:45.589Z,44.69
2023-01-22T20:09:13.754Z,44.91
2023-01-22T20:11:41.523Z,44.55
2023-01-22T20:14:09.335Z,44.49
2023-01-22T20:16:37.131Z,44.76
2023-01-22T20:19:04.997Z,44.45
2023-01-22T20:21:32.806Z,44.38
2023-01-22T20:24:00.626Z,44.58
2023-01-22T20:26:28.444Z,44.15
2023-01-22T20:28:56.402Z,44.02
2023-01-22T20:31:24.554Z,44.48
2023-01-22T20:33:53.026Z,44.40
2023-01-22T20:36:21.548Z,44.45
2023-01-22T20:38:52.694Z,44.42
2023-01-22T20:41:21.123Z,44.44
2023-01-22T20:43:48.967Z,44.23
2023-01-22T20:46:18.549Z,44.00
2023-01-22T20:48:46.405Z,43.68
2023-01-22T20:51:17.956Z,43.44
2023-01-22T20:53:46.658Z,42.91
2023-01-22T20:56:21.502Z,42.64
2023-01-22T20:58:54.924Z,42.62
2023-01-22T21:01:22.765Z,42.52
2023-01-22T21:03:50.622Z,42.53
2023-01-22T21:06:19.474Z,42.52
2023-01-22T21:08:51.959Z,42.86
2023-01-22T21:11:20.734Z,42.92
2023-01-22T21:13:49.401Z,43.55
2023-01-22T21:16:31.309Z,44.21
2023-01-22T21:19:04.206Z,44.03
2023-01-22T21:21:32.505Z,44.28
2023-01-22T21:24:00.275Z,43.60
2023-01-22T21:26:30.780Z,44.51
2023-01-22T21:29:00.769Z,44.41
2023-01-22T21:31:28.977Z,44.11
2023-01-22T21:34:03.338Z,45.19
2023-01-22T21:36:34.150Z,45.37
2023-01-22T21:39:02.266Z,45.24
2023-01-22T21:41:30.053Z,45.60
2023-01-22T21:44:16.161Z,45.40
2023-01-22T21:46:44.635Z,45.40
2023-01-22T21:49:18.167Z,44.83
2023-01-22T21:51:53.052Z,45.17
2023-01-22T21:54:28.217Z,45.20
2023-01-22T21:56:56.429Z,44.99
2023-01-22T21:59:24.399Z,45.06
2023-01-22T22:01:54.079Z,44.71
2023-01-22T22:04:26.122Z,45.17
2023-01-22T22:06:54.088Z,44.33
2023-01-22T22:09:23.950Z,43.92
2023-01-22T22:11:54.938Z,44.08
2023-01-22T22:14:22.758Z,44.19
2023-01-22T22:16:50.663Z,44.35
2023-01-22T22:19:18.674Z,44.82
2023-01-22T22:21:46.700Z,44.74
2023-01-22T22:24:14.701Z,44.77
2023-01-22T22:26:42.629Z,44.79
2023-01-22T22:29:10.553Z,44.67
2023-01-22T22:31:38.543Z,45.19
2023-01-22T22:34:06.369Z,44.54
2023-01-22T22:36:34.289Z,44.60
2023-01-22T22:39:02.257Z,44.56
2023-01-22T22:41:31.178Z,44.57
2023-01-22T22:43:59.436Z,44.11
2023-01-22T22:46:29.125Z,44.04
2023-01-22T22:48:57.895Z,44.21
2023-01-22T22:51:38.727Z,44.23
2023-01-22T22:54:08.646Z,43.92
2023-01-22T22:56:36.638Z,43.79
2023-01-22T22:59:05.521Z,43.87
2023-01-22T23:01:33.563Z,43.49
2023-01-22T23:04:01.632Z,42.61
2023-01-22T23:06:30.925Z,43.05
2023-01-22T23:09:11.918Z,43.06
2023-01-22T23:11:40.074Z,43.20
2023-01-22T23:14:07.905Z,43.64
2023-01-22T23:16:37.707Z,42.89
2023-01-22T23:19:07.947Z,42.86
2023-01-22T23:21:36.686Z,42.18
2023-01-22T23:24:04.862Z,42.13
2023-01-22T23:26:32.731Z,42.51
2023-01-22T23:29:02.684Z,41.95
2023-01-22T23:31:31.625Z,41.89
2023-01-22T23:34:00.000Z,41.50
2023-01-22T23:36:27.814Z,42.07
2023-01-22T23:38:55.770Z,41.81
2023-01-22T23:41:23.633Z,42.58
2023-01-22T23:43:51.717Z,42.37
2023-01-22T23:46:24.663Z,42.52
2023-01-22T23:48:52.836Z,42.60
2023-01-22T23:51:20.600Z,42.12
2023-01-22T23:53:52.198Z,42.27
2023-01-22T23:56:23.678Z,42.01
2023-01-22T23:58:53.332Z,41.97
